Time;durP1;ratioP1;P1;durP2;ratioP2;P2;SDS_P1;SDS_P2;PMS_P1;PMS_P2;Temp;Humidity;BMP_temperature;BMP_pressure;BME280_temperature;BME280_humidity;BME280_pressure;Samples;Min_cycle;Max_cycle;Signal;HPM_P1;HPM_P2
2023/02/14 00:10:11;;;;;;;18.60;10.40;;;;;;;4.60;100.00;102521.90;213651;1291;138910;-93
2023/02/14 00:16:12;;;;;;;17.50;9.70;;;;;;;4.58;100.00;102520.83;213958;1294;139183;-93
2023/02/14 00:34:17;;;;;;;21.60;10.60;;;;;;;4.57;100.00;102516.48;213545;1294;139043;-92
2023/02/14 00:40:15;;;;;;;;;;;;;;;;;;;;;
2023/02/14 00:52:23;;;;;;;17.50;10.80;;;;;;;4.56;100.00;102517.56;213863;1293;138453;-92
2023/02/14 00:58:35;;;;;;;;;;;;;;;;;;;;;
2023/02/14 01:04:26;;;;;;;19.70;10.40;;;;;;;4.54;100.00;102527.14;213764;1292;139031;-91
2023/02/14 01:16:28;;;;;;;22.20;10.30;;;;;;;4.52;100.00;102537.90;213091;1291;138965;-91
2023/02/14 01:22:30;;;;;;;22.40;11.10;;;;;;;4.52;100.00;102528.84;213719;1289;139093;-91
2023/02/14 01:34:32;;;;;;;21.30;10.50;;;;;;;4.51;100.00;102514.83;213411;1291;138196;-90
2023/02/14 01:40:33;;;;;;;20.90;11.30;;;;;;;4.50;100.00;102508.46;213242;1289;138381;-90
2023/02/14 01:46:35;;;;;;;20.10;11.00;;;;;;;4.49;100.00;102502.98;213137;1288;138411;-91
2023/02/14 01:52:35;;;;;;;22.00;11.80;;;;;;;4.48;100.00;102500.58;213859;1289;138802;-92
2023/02/14 02:10:49;;;;;;;22.90;11.00;;;;;;;4.43;100.00;102503.18;213230;1291;139416;-93
2023/02/14 02:16:56;;;;;;;20.60;10.70;;;;;;;4.43;100.00;102501.66;213411;1294;138990;-94
2023/02/14 02:23:01;;;;;;;20.20;10.50;;;;;;;4.42;100.00;102497.03;213772;1292;139187;-93
2023/02/14 02:29:16;;;;;;;19.20;11.00;;;;;;;4.41;100.00;102490.94;213188;1291;138860;-93
2023/02/14 02:35:22;;;;;;;19.70;10.00;;;;;;;4.39;100.00;102494.23;213792;1294;139324;-92
2023/02/14 02:59:53;;;;;;;20.80;10.40;;;;;;;4.34;100.00;102478.30;213458;1294;125044;-92
2023/02/14 03:05:56;;;;;;;24.00;11.40;;;;;;;4.33;100.00;102482.92;213861;1291;138167;-92
2023/02/14 03:11:57;;;;;;;19.60;9.80;;;;;;;4.32;100.00;102488.66;213800;1291;138207;-91
2023/02/14 03:24:36;;;;;;;21.00;11.10;;;;;;;4.31;100.00;102491.79;214262;1291;138256;-94
2023/02/14 03:30:43;;;;;;;20.00;10.70;;;;;;;4.30;100.00;102497.50;213487;1291;138449;-93
2023/02/14 03:37:12;;;;;;;20.80;10.30;;;;;;;4.30;100.00;102500.02;213584;1292;138764;-93
2023/02/14 03:43:19;;;;;;;20.50;9.80;;;;;;;4.30;100.00;102508.85;214112;1293;105440;-93
2023/02/14 03:55:22;;;;;;;19.50;9.40;;;;;;;4.28;100.00;102507.45;214179;1290;105587;-93
2023/02/14 04:01:24;;;;;;;17.10;9.30;;;;;;;4.28;100.00;102502.60;213940;1294;139001;-94
2023/02/14 04:07:25;;;;;;;17.50;9.10;;;;;;;4.27;100.00;102500.30;214079;1290;138485;-93
2023/02/14 04:19:49;;;;;;;20.40;10.60;;;;;;;4.26;100.00;102500.55;213381;1293;139567;-90
2023/02/14 04:25:44;;;;;;;22.80;10.20;;;;;;;4.24;100.00;102495.92;213827;1291;103868;-91
2023/02/14 04:31:47;;;;;;;22.10;10.90;;;;;;;4.24;100.00;102497.34;213603;1291;104518;-91
2023/02/14 04:37:48;;;;;;;21.20;9.40;;;;;;;4.23;100.00;102504.10;213370;1291;138287;-91
2023/02/14 04:43:49;;;;;;;21.30;10.40;;;;;;;4.22;100.00;102502.96;213681;1291;108567;-90
2023/02/14 04:49:51;;;;;;;20.90;10.00;;;;;;;4.21;100.00;102505.65;213052;1293;138450;-91
2023/02/14 04:55:53;;;;;;;17.10;9.00;;;;;;;4.20;100.00;102501.94;213693;1294;108705;-91
2023/02/14 05:01:55;;;;;;;18.40;8.50;;;;;;;4.18;100.00;102497.02;213731;1293;109393;-92
2023/02/14 05:14:03;;;;;;;16.30;8.80;;;;;;;4.16;100.00;102491.36;213670;1293;138671;-91
2023/02/14 05:20:04;;;;;;;15.10;7.90;;;;;;;4.16;100.00;102500.29;213023;1292;137600;-90
2023/02/14 05:26:05;;;;;;;18.10;9.70;;;;;;;4.15;100.00;102490.38;213571;1294;138445;-88
2023/02/14 05:32:07;;;;;;;22.90;9.70;;;;;;;4.13;100.00;102497.59;213273;1294;138519;-90
2023/02/14 05:38:08;;;;;;;22.00;10.00;;;;;;;4.13;100.00;102493.02;213064;1292;137767;-90
2023/02/14 05:50:10;;;;;;;19.60;10.20;;;;;;;4.08;100.00;102502.04;213242;1294;138208;-91
2023/02/14 05:56:12;;;;;;;19.30;10.20;;;;;;;4.07;100.00;102510.55;213727;1291;138853;-90
2023/02/14 06:02:14;;;;;;;22.90;9.90;;;;;;;4.06;100.00;102506.63;213475;1291;140282;-91
2023/02/14 06:08:15;;;;;;;17.40;10.10;;;;;;;4.01;100.00;102510.15;213430;1289;138040;-91
2023/02/14 06:14:15;;;;;;;18.40;10.80;;;;;;;4.04;100.00;102519.34;213841;1290;139433;-89
2023/02/14 06:20:16;;;;;;;19.00;10.70;;;;;;;4.02;100.00;102522.67;213310;1290;138044;-88
2023/02/14 06:26:10;;;;;;;23.80;10.90;;;;;;;4.00;100.00;102531.42;214080;1290;96369;-89
2023/02/14 06:32:18;;;;;;;19.20;10.30;;;;;;;3.98;100.00;102533.21;213886;1292;138713;-84
2023/02/14 06:38:19;;;;;;;26.70;13.70;;;;;;;3.99;100.00;102533.92;213481;1291;140158;-84
2023/02/14 06:50:22;;;;;;;26.10;12.90;;;;;;;3.99;100.00;102533.45;213554;1293;138057;-85
2023/02/14 07:02:24;;;;;;;99.40;44.00;;;;;;;4.07;100.00;102544.45;214101;1291;95273;-85
2023/02/14 07:08:25;;;;;;;136.10;69.80;;;;;;;4.11;100.00;102554.63;213457;1294;138245;-85
2023/02/14 07:14:26;;;;;;;54.60;28.80;;;;;;;4.15;100.00;102551.20;213686;1291;139537;-84
2023/02/14 07:20:27;;;;;;;29.80;16.20;;;;;;;4.23;100.00;102563.48;213112;1291;139214;-85
2023/02/14 07:32:30;;;;;;;21.10;11.30;;;;;;;4.36;100.00;102566.16;213990;1294;97937;-85
2023/02/14 07:38:34;;;;;;;21.10;10.60;;;;;;;4.45;100.00;102572.46;213525;1291;138921;-85
2023/02/14 07:44:37;;;;;;;22.60;11.40;;;;;;;4.54;100.00;102571.20;214094;1294;96607;-85
2023/02/14 07:50:36;;;;;;;19.80;9.90;;;;;;;4.65;100.00;102585.23;213416;1292;221960;-86
2023/02/14 07:56:37;;;;;;;20.00;9.90;;;;;;;4.76;100.00;102575.86;213416;1293;138257;-85
2023/02/14 08:02:39;;;;;;;22.80;9.60;;;;;;;4.88;100.00;102581.87;213885;1290;97917;-86
2023/02/14 08:08:40;;;;;;;19.00;10.10;;;;;;;5.00;100.00;102574.94;213655;1293;138588;-85
2023/02/14 08:20:43;;;;;;;17.30;8.70;;;;;;;5.30;100.00;102573.15;214390;1290;223995;-85
2023/02/14 08:26:44;;;;;;;19.80;8.50;;;;;;;5.48;100.00;102579.39;213710;1291;138351;-85
2023/02/14 08:32:45;;;;;;;15.70;8.50;;;;;;;5.65;100.00;102593.21;214164;1291;138433;-85
2023/02/14 08:38:46;;;;;;;17.70;8.50;;;;;;;5.84;100.00;102587.88;213386;1289;138650;-85
2023/02/14 08:50:41;;;;;;;17.00;9.40;;;;;;;6.24;100.00;102596.62;213535;1291;138404;-85
2023/02/14 09:02:43;;;;;;;13.10;6.70;;;;;;;6.62;100.00;102598.17;213808;1291;138035;-86
2023/02/14 09:08:45;;;;;;;14.30;6.70;;;;;;;6.77;100.00;102599.66;213036;1290;138332;-87
2023/02/14 09:14:45;;;;;;;15.20;6.30;;;;;;;6.98;100.00;102603.63;213838;1291;138709;-85
2023/02/14 09:20:47;;;;;;;12.80;5.40;;;;;;;7.21;100.00;102604.52;209524;1292;5375067;-86
2023/02/14 09:32:50;;;;;;;13.90;5.20;;;;;;;7.53;100.00;102608.16;213739;1293;137972;-88
2023/02/14 09:38:51;;;;;;;11.60;4.20;;;;;;;7.71;100.00;102605.05;213291;1295;138505;-86
2023/02/14 09:51:11;;;;;;;10.50;4.20;;;;;;;8.03;99.83;102607.54;213400;1293;137711;-86
2023/02/14 09:57:18;;;;;;;9.10;3.20;;;;;;;8.20;99.29;102610.30;213430;1292;137868;-86
2023/02/14 10:09:54;;;;;;;7.30;3.30;;;;;;;8.40;97.88;102600.36;213466;1293;139332;-87
2023/02/14 10:15:57;;;;;;;6.70;3.10;;;;;;;8.57;96.34;102593.48;214039;1291;96608;-87
2023/02/14 10:28:12;;;;;;;9.20;2.90;;;;;;;8.68;93.70;102582.61;213348;1290;137677;-85
2023/02/14 10:34:15;;;;;;;7.40;2.50;;;;;;;8.80;94.59;102590.38;214089;1292;97955;-85
2023/02/14 10:40:39;;;;;;;7.70;2.60;;;;;;;9.02;94.66;102576.95;213560;1294;137947;-85
2023/02/14 10:46:44;;;;;;;7.50;3.10;;;;;;;9.10;92.84;102578.35;213634;1294;138087;-85
2023/02/14 10:59:10;;;;;;;8.10;3.00;;;;;;;9.39;92.96;102579.41;212809;1293;138593;-85
2023/02/14 11:11:13;;;;;;;11.10;4.10;;;;;;;9.53;90.54;102577.27;213327;1294;138170;-86
2023/02/14 11:17:30;;;;;;;8.00;4.30;;;;;;;9.58;91.77;102572.95;213035;1290;138223;-85
2023/02/14 11:35:33;;;;;;;;;;;;;;;;;;;;;
2023/02/14 11:47:41;;;;;;;12.70;4.20;;;;;;;9.62;88.32;102547.57;213428;1289;139517;-86
2023/02/14 11:53:40;;;;;;;9.20;4.20;;;;;;;9.65;88.01;102550.98;213936;1291;138494;-86
2023/02/14 12:12:03;;;;;;;13.60;5.20;;;;;;;9.78;88.01;102535.02;213875;1294;138783;-86
2023/02/14 12:24:12;;;;;;;;;;;;;;;;;;;;;
2023/02/14 12:30:23;;;;;;;10.20;5.00;;;;;;;9.61;85.67;102525.25;213329;1292;138826;-86
2023/02/14 12:36:23;;;;;;;12.70;5.40;;;;;;;9.51;86.08;102520.98;213573;1294;138777;-85
2023/02/14 12:42:33;;;;;;;11.00;4.50;;;;;;;9.43;84.81;102513.65;214024;1292;138527;-85
2023/02/14 12:48:32;;;;;;;9.70;3.80;;;;;;;9.35;85.61;102513.67;213584;1291;138527;-86
2023/02/14 12:54:49;;;;;;;7.90;3.00;;;;;;;9.24;85.66;102514.81;214015;1292;138699;-86
2023/02/14 13:00:56;;;;;;;7.70;3.10;;;;;;;9.10;84.55;102503.89;213424;1291;139437;-84
2023/02/14 13:13:16;;;;;;;9.10;4.20;;;;;;;8.85;84.05;102497.05;213811;1294;138282;-84
2023/02/14 13:25:30;;;;;;;;;;;;;;;8.80;84.57;102494.58;213760;1294;138176;-84
2023/02/14 13:31:30;;;;;;;9.80;3.90;;;;;;;8.81;84.81;102494.70;213241;1290;125067;-85
2023/02/14 13:37:23;;;;;;;;;;;;;;;;;;;;;
2023/02/14 13:43:27;;;;;;;7.70;4.00;;;;;;;8.82;86.08;102489.83;213532;1292;138252;-85
2023/02/14 13:49:31;;;;;;;10.80;3.50;;;;;;;8.86;85.91;102491.22;213054;1292;138225;-85
2023/02/14 13:55:45;;;;;;;10.40;3.90;;;;;;;8.83;85.13;102487.23;214101;1293;138393;-85
2023/02/14 14:01:50;;;;;;;8.40;3.30;;;;;;;8.84;85.10;102484.22;213685;1294;138913;-83
2023/02/14 14:07:42;;;;;;;;;;;;;;;;;;;;;
2023/02/14 14:13:44;;;;;;;12.20;6.00;;;;;;;8.97;85.43;102485.36;213594;1294;137994;-85
2023/02/14 14:19:50;;;;;;;;;;;;;;;;;;;;;
2023/02/14 14:31:54;;;;;;;;;;;;;;;;;;;;;
2023/02/14 14:38:05;;;;;;;9.90;5.20;;;;;;;8.57;82.59;102473.92;213300;1294;138628;-86
2023/02/14 14:44:09;;;;;;;12.80;5.40;;;;;;;8.37;83.59;102469.00;214080;1294;137945;-86
2023/02/14 14:50:10;;;;;;;10.60;5.40;;;;;;;8.30;84.17;102467.75;213361;1294;138188;-87
2023/02/14 14:56:10;;;;;;;13.30;5.50;;;;;;;8.20;84.09;102470.19;213796;1294;138158;-85
2023/02/14 15:02:17;;;;;;;15.90;6.00;;;;;;;8.08;83.62;102468.27;213920;1293;138325;-86
2023/02/14 15:08:16;;;;;;;;;;;;;;;;;;;;;
2023/02/14 15:14:28;;;;;;;14.00;6.20;;;;;;;7.85;84.11;102452.15;213954;1292;139055;-84
2023/02/14 15:20:35;;;;;;;13.20;7.30;;;;;;;7.71;84.19;102449.14;214533;1292;138486;-87
2023/02/14 15:26:37;;;;;;;12.20;6.30;;;;;;;7.57;84.52;102438.05;213743;1294;138337;-85
2023/02/14 15:32:38;;;;;;;13.10;7.50;;;;;;;7.44;84.87;102439.77;214170;1294;138621;-86
2023/02/14 15:38:39;;;;;;;15.40;7.40;;;;;;;7.27;84.61;102431.37;213386;1294;138809;-86
2023/02/14 15:44:40;;;;;;;14.00;7.70;;;;;;;7.11;84.96;102429.64;214109;1294;138001;-86
2023/02/14 15:50:41;;;;;;;13.10;7.20;;;;;;;6.97;85.59;102434.48;213001;1295;138648;-85
2023/02/14 16:03:14;;;;;;;17.20;8.60;;;;;;;6.71;87.16;102442.27;213825;1290;139205;-84
2023/02/14 16:09:24;;;;;;;14.60;7.60;;;;;;;6.58;88.02;102439.71;212435;1298;139802;-84
2023/02/14 16:15:26;;;;;;;13.50;7.50;;;;;;;6.40;88.10;102439.27;213683;1294;138172;-84
2023/02/14 16:21:30;;;;;;;16.10;7.30;;;;;;;6.26;88.33;102450.06;213272;1289;139280;-84
2023/02/14 16:27:31;;;;;;;13.90;8.00;;;;;;;6.06;88.70;102454.28;213329;1291;138144;-85
2023/02/14 16:33:31;;;;;;;17.00;10.00;;;;;;;5.88;89.45;102455.02;213729;1295;138591;-85
2023/02/14 16:39:33;;;;;;;18.30;11.80;;;;;;;5.66;89.65;102457.66;214039;1293;138329;-84
2023/02/14 16:45:34;;;;;;;21.20;12.30;;;;;;;5.43;90.27;102455.36;214076;1295;138685;-85
2023/02/14 16:51:36;;;;;;;26.00;14.10;;;;;;;5.26;90.91;102460.11;214314;1293;139172;-84
2023/02/14 16:57:39;;;;;;;21.40;11.70;;;;;;;5.05;91.31;102455.17;213840;1289;138363;-84
2023/02/14 17:03:42;;;;;;;22.60;11.70;;;;;;;4.83;91.86;102460.90;214217;1289;138669;-83
2023/02/14 17:15:42;;;;;;;26.90;14.80;;;;;;;4.43;92.95;102463.75;214273;1292;137962;-84
2023/02/14 17:21:43;;;;;;;55.80;30.60;;;;;;;4.18;93.52;102460.42;213494;1290;138457;-84
2023/02/14 17:27:45;;;;;;;54.50;29.40;;;;;;;3.99;94.35;102463.35;213459;1294;138198;-84
2023/02/14 17:33:45;;;;;;;61.80;34.90;;;;;;;3.81;94.45;102457.28;214641;1289;138701;-84
2023/02/14 17:39:47;;;;;;;71.10;36.10;;;;;;;3.60;94.82;102464.66;213384;1294;138172;-85
2023/02/14 17:45:48;;;;;;;46.30;24.90;;;;;;;3.40;95.67;102462.70;213945;1289;138675;-84
2023/02/14 17:51:49;;;;;;;34.10;19.10;;;;;;;3.25;96.00;102464.12;214093;1291;138570;-87
2023/02/14 17:57:42;;;;;;;;;;;;;;;;;;;;;
2023/02/14 18:03:45;;;;;;;32.40;15.80;;;;;;;2.86;96.81;102454.75;213921;1290;138278;-85
2023/02/14 18:09:46;;;;;;;30.50;13.40;;;;;;;2.70;96.79;102458.65;213367;1291;138283;-84
2023/02/14 18:15:47;;;;;;;27.70;14.60;;;;;;;2.53;97.72;102458.96;213631;1293;139216;-84
2023/02/14 18:21:54;;;;;;;28.00;15.80;;;;;;;2.37;98.18;102457.51;213695;1291;138400;-86
2023/02/14 18:27:56;;;;;;;45.10;22.40;;;;;;;2.24;98.55;102454.05;213277;1290;138453;-84
2023/02/14 18:33:59;;;;;;;29.40;16.00;;;;;;;2.05;97.99;102461.55;214000;1289;139729;-84
2023/02/14 18:39:58;;;;;;;54.90;27.30;;;;;;;1.85;98.48;102455.45;213442;1291;137867;-85
2023/02/14 18:45:59;;;;;;;64.30;30.80;;;;;;;1.76;99.73;102460.38;214011;1291;96585;-85
2023/02/14 18:52:09;;;;;;;75.80;36.50;;;;;;;1.66;99.99;102462.52;214077;1289;97937;-86
2023/02/14 18:58:11;;;;;;;63.80;31.80;;;;;;;1.56;100.00;102457.36;213683;1294;138429;-85
2023/02/14 19:10:13;;;;;;;55.60;30.00;;;;;;;1.25;99.94;102448.03;213438;1291;138741;-84
2023/02/14 19:16:15;;;;;;;54.20;28.70;;;;;;;1.16;100.00;102440.95;213765;1292;96619;-85
2023/02/14 19:22:16;;;;;;;58.10;31.40;;;;;;;1.08;100.00;102441.24;214053;1294;96669;-84
2023/02/14 19:28:17;;;;;;;58.90;30.30;;;;;;;0.97;100.00;102440.43;213437;1291;138593;-85
2023/02/14 19:34:18;;;;;;;59.30;30.30;;;;;;;0.83;100.00;102441.30;213907;1291;97924;-85
2023/02/14 19:40:19;;;;;;;63.40;31.50;;;;;;;0.77;100.00;102436.16;213221;1295;138593;-85
2023/02/14 19:46:21;;;;;;;64.60;32.90;;;;;;;0.68;100.00;102432.05;213689;1294;138730;-85
2023/02/14 19:52:22;;;;;;;62.10;31.40;;;;;;;0.57;100.00;102432.96;213886;1294;224371;-85
2023/02/14 19:58:24;;;;;;;59.10;30.40;;;;;;;0.45;100.00;102434.95;213279;1294;139000;-86
2023/02/14 20:04:25;;;;;;;75.70;40.10;;;;;;;0.38;100.00;102437.55;214085;1292;111741;-86
2023/02/14 20:10:25;;;;;;;74.50;39.00;;;;;;;0.31;100.00;102440.33;213426;1294;140040;-85
2023/02/14 20:16:27;;;;;;;84.70;43.40;;;;;;;0.24;100.00;102434.31;213305;1292;139459;-85
2023/02/14 20:22:28;;;;;;;80.10;41.20;;;;;;;0.18;100.00;102429.45;213699;1291;111528;-85
2023/02/14 20:34:30;;;;;;;116.60;51.60;;;;;;;0.07;100.00;102420.70;213796;1294;138505;-84
2023/02/14 20:40:31;;;;;;;122.10;52.20;;;;;;;0.00;100.00;102424.01;213273;1292;248138;-84
2023/02/14 20:52:33;;;;;;;114.10;52.50;;;;;;;-0.16;100.00;102419.11;214053;1294;105880;-84
2023/02/14 20:58:34;;;;;;;112.20;55.50;;;;;;;-0.23;100.00;102418.44;213224;1294;140294;-85
2023/02/14 21:04:33;;;;;;;;;;;;;;;;;;;;;
2023/02/14 21:10:44;;;;;;;110.90;50.40;;;;;;;-0.35;100.00;102410.44;212962;1294;140628;-84
2023/02/14 21:16:38;;;;;;;97.50;48.90;;;;;;;-0.41;100.00;102403.18;213349;1291;139972;-84
2023/02/14 21:28:41;;;;;;;91.70;42.60;;;;;;;-0.49;100.00;102388.23;213120;1292;139200;-86
2023/02/14 21:40:43;;;;;;;119.10;52.60;;;;;;;-0.58;100.00;102383.66;213189;1290;139058;-85
2023/02/14 21:46:47;;;;;;;100.70;47.40;;;;;;;-0.62;100.00;102382.20;213520;1289;139658;-85
2023/02/14 21:52:43;;;;;;;;;;;;;;;;;;;;;
2023/02/14 21:58:46;;;;;;;115.60;51.40;;;;;;;-0.75;100.00;102383.05;214297;1289;139468;-85
2023/02/14 22:04:47;;;;;;;107.30;53.30;;;;;;;-0.80;100.00;102382.50;214779;1293;140304;-84
2023/02/14 22:10:48;;;;;;;98.50;48.20;;;;;;;-0.85;100.00;102384.44;214084;1293;140573;-84
2023/02/14 22:16:49;;;;;;;110.80;52.40;;;;;;;-0.91;100.00;102380.11;213542;1291;139218;-85
2023/02/14 22:22:51;;;;;;;110.00;51.40;;;;;;;-0.97;100.00;102376.05;214019;1289;139694;-84
2023/02/14 22:34:53;;;;;;;105.60;50.00;;;;;;;-1.04;100.00;102369.54;213940;1293;96688;-84
2023/02/14 22:40:54;;;;;;;106.70;48.20;;;;;;;-1.10;100.00;102359.95;213551;1292;139025;-85
2023/02/14 22:47:00;;;;;;;105.70;49.00;;;;;;;-1.13;100.00;102356.95;213141;1289;140721;-85
2023/02/14 22:52:59;;;;;;;101.80;47.70;;;;;;;-1.16;100.00;102352.10;213527;1291;96728;-84
2023/02/14 22:59:00;;;;;;;125.40;54.00;;;;;;;-1.20;100.00;102349.48;213402;1291;139186;-84
2023/02/14 23:05:02;;;;;;;123.80;56.10;;;;;;;-1.23;100.00;102345.76;213613;1293;139261;-85
2023/02/14 23:11:03;;;;;;;121.00;52.80;;;;;;;-1.26;100.00;102343.41;213485;1291;139251;-91
2023/02/14 23:29:14;;;;;;;113.20;55.00;;;;;;;-1.50;100.00;102336.14;213399;1289;139013;-89
2023/02/14 23:35:15;;;;;;;133.60;58.00;;;;;;;-1.51;100.00;102333.09;213950;1291;96877;-89
2023/02/14 23:47:14;;;;;;;;;;;;;;;;;;;;;
2023/02/14 23:53:17;;;;;;;107.90;51.80;;;;;;;-1.61;100.00;102323.29;213671;1294;139370;-89
2023/02/14 23:59:18;;;;;;;108.80;48.90;;;;;;;-1.65;100.00;102324.06;213127;1292;138858;-89
